Time;durP1;ratioP1;P1;durP2;ratioP2;P2;SDS_P1;SDS_P2;PMS_P1;PMS_P2;Temp;Humidity;BMP_temperature;BMP_pressure;BME280_temperature;BME280_humidity;BME280_pressure;Samples;Min_cycle;Max_cycle;Signal;HPM_P1;HPM_P2
2022/02/03 00:01:56;;;;;;;96.43;48.73;;;;;;;-1.36;68.31;99792.16;126454;1098;104210;-81
2022/02/03 00:04:29;;;;;;;95.97;50.30;;;;;;;-1.39;67.52;99796.20;126401;1099;104147;-80
2022/02/03 00:07:07;;;;;;;98.87;48.30;;;;;;;-1.41;68.41;99793.52;126460;1099;104670;-80
2022/02/03 00:10:05;;;;;;;94.40;46.77;;;;;;;-1.41;67.69;99790.06;126372;1099;104254;-80
2022/02/03 00:24:14;;;;;;;78.03;40.93;;;;;;;-1.46;69.16;99805.17;126445;1099;104143;-80
2022/02/03 00:27:02;;;;;;;89.37;42.10;;;;;;;-1.48;68.39;99806.72;126289;1099;107857;-80
2022/02/03 00:29:51;;;;;;;83.47;38.03;;;;;;;-1.49;69.46;99799.80;126344;1099;104242;-80
2022/02/03 00:35:33;;;;;;;80.00;39.03;;;;;;;-1.56;68.34;99816.45;126387;1099;102067;-80
2022/02/03 00:49:19;;;;;;;70.93;34.07;;;;;;;-1.58;69.51;99820.60;126441;1099;104264;-80
2022/02/03 00:51:53;;;;;;;74.00;34.93;;;;;;;-1.58;69.31;99810.31;126515;1099;104152;-80
2022/02/03 00:54:25;;;;;;;68.05;34.88;;;;;;;-1.57;69.28;99819.83;126390;1099;104153;-80
2022/02/03 00:57:01;;;;;;;65.77;32.90;;;;;;;-1.56;68.89;99818.14;126421;1099;104302;-80
2022/02/03 00:59:39;;;;;;;69.40;33.73;;;;;;;-1.55;68.75;99813.11;126459;1099;104188;-80
2022/02/03 01:02:13;;;;;;;62.70;32.17;;;;;;;-1.54;69.82;99826.86;126399;1099;104149;-80
2022/02/03 01:04:46;;;;;;;69.63;33.30;;;;;;;-1.52;69.99;99827.89;126380;1099;104156;-80
2022/02/03 01:07:20;;;;;;;72.23;36.03;;;;;;;-1.49;68.86;99825.53;126380;1099;104171;-80
2022/02/03 01:10:03;;;;;;;63.55;32.75;;;;;;;-1.49;69.08;99817.81;126405;1099;104174;-80
2022/02/03 01:12:42;;;;;;;70.43;33.50;;;;;;;-1.47;69.28;99827.41;126397;1099;104216;-80
2022/02/03 01:15:23;;;;;;;66.70;31.43;;;;;;;-1.45;69.67;99823.30;126416;1099;104172;-80
2022/02/03 01:18:08;;;;;;;64.10;30.83;;;;;;;-1.42;69.13;99826.86;126415;1098;118843;-80
2022/02/03 01:21:20;;;;;;;72.83;33.90;;;;;;;-1.41;70.02;99829.55;126337;1099;104204;-80
2022/02/03 01:44:01;;;;;;;66.67;32.30;;;;;;;-1.11;70.69;99847.97;126434;1099;104255;-80
2022/02/03 01:46:50;;;;;;;63.70;30.03;;;;;;;-1.10;70.60;99850.66;125626;1100;104255;-80
2022/02/03 01:51:37;;;;;;;61.10;28.73;;;;;;;-1.06;69.78;99868.91;126344;1099;104155;-80
2022/02/03 01:52:33;;;;;;;62.10;29.83;;;;;;;-1.03;70.14;99863.97;126473;1099;104187;-80
2022/02/03 01:55:08;;;;;;;62.17;28.77;;;;;;;-1.00;70.28;99866.77;126425;1099;104152;-80
2022/02/03 01:57:43;;;;;;;57.00;30.37;;;;;;;-0.98;70.25;99871.25;126361;1099;104150;-80
2022/02/03 02:00:21;;;;;;;61.47;29.13;;;;;;;-0.97;70.34;99869.56;126409;1098;104150;-80
2022/02/03 02:03:14;;;;;;;60.00;29.13;;;;;;;-0.96;70.38;99879.09;126369;1099;104252;-80
2022/02/03 02:06:09;;;;;;;57.90;28.33;;;;;;;-0.97;70.33;99875.59;126445;1099;104264;-80
2022/02/03 02:08:46;;;;;;;56.40;27.87;;;;;;;-0.96;69.89;99876.52;126325;1099;104184;-80
2022/02/03 02:11:47;;;;;;;63.53;29.87;;;;;;;-0.94;70.08;99885.23;125543;1099;104172;-80
2022/02/03 02:15:04;;;;;;;57.90;29.07;;;;;;;-0.93;69.82;99884.46;126378;1099;104175;-80
2022/02/03 02:18:08;;;;;;;56.70;28.20;;;;;;;-0.90;70.87;99897.56;126276;1098;104227;-80
2022/02/03 02:37:57;;;;;;;55.67;25.00;;;;;;;-0.60;71.38;99891.09;126344;1099;104143;-80
2022/02/03 02:41:13;;;;;;;51.57;24.43;;;;;;;-0.56;71.22;99894.80;126432;1099;104159;-80
2022/02/03 02:43:58;;;;;;;53.10;25.33;;;;;;;-0.52;70.47;99901.93;126537;1099;104158;-80
2022/02/03 02:46:42;;;;;;;53.57;24.07;;;;;;;-0.49;70.11;99899.57;126496;1099;101809;-80
2022/02/03 02:49:22;;;;;;;52.10;25.77;;;;;;;-0.45;70.04;99906.74;126426;1099;104293;-80
2022/02/03 02:52:01;;;;;;;51.97;25.67;;;;;;;-0.41;70.74;99906.14;126451;1097;104204;-80
2022/02/03 02:54:53;;;;;;;50.13;22.97;;;;;;;-0.39;71.27;99908.83;126501;1099;104188;-80
2022/02/03 02:57:57;;;;;;;52.03;24.07;;;;;;;-0.34;71.17;99916.88;126482;1099;104178;-80
2022/02/03 03:29:54;;;;;;;44.63;21.53;;;;;;;-0.13;70.40;99933.84;126353;1098;104224;-80
2022/02/03 03:32:47;;;;;;;46.10;22.27;;;;;;;-0.12;70.72;99930.48;126412;1099;104160;-80
2022/02/03 03:35:34;;;;;;;46.37;21.90;;;;;;;-0.13;71.22;99941.58;126459;1099;102180;-80
2022/02/03 03:38:09;;;;;;;49.87;23.67;;;;;;;-0.15;71.17;99932.86;126429;1098;104306;-80
2022/02/03 03:40:46;;;;;;;44.70;22.57;;;;;;;-0.16;70.43;99932.75;126367;1099;104162;-80
2022/02/03 03:43:26;;;;;;;44.57;22.13;;;;;;;-0.16;70.96;99932.75;126444;1099;104120;-80
2022/02/03 03:46:01;;;;;;;46.03;21.80;;;;;;;-0.16;70.85;99935.33;126394;1099;104140;-80
2022/02/03 03:48:40;;;;;;;49.03;22.67;;;;;;;-0.16;71.30;99933.63;126421;1099;104245;-80
2022/02/03 03:51:15;;;;;;;43.87;22.03;;;;;;;-0.15;71.17;99942.29;126441;1099;104592;-80
2022/02/03 03:54:02;;;;;;;46.03;21.97;;;;;;;-0.13;70.88;99948.44;125646;1099;104270;-81
2022/02/03 03:56:46;;;;;;;44.17;20.73;;;;;;;-0.12;71.67;99951.12;126359;1099;104197;-80
2022/02/03 04:38:48;;;;;;;32.47;14.53;;;;;;;0.16;71.75;100025.27;125435;1102;104318;-79
2022/02/03 04:58:37;;;;;;;32.47;14.10;;;;;;;0.05;72.49;100052.90;125530;1105;102092;-80
2022/02/03 05:04:29;;;;;;;27.70;12.97;;;;;;;0.03;72.44;100072.52;125340;1106;103016;-79
2022/02/03 05:07:34;;;;;;;29.45;13.65;;;;;;;0.00;71.51;100074.91;125558;1105;104187;-80
2022/02/03 05:10:39;;;;;;;31.00;14.03;;;;;;;-0.02;71.94;100087.70;125664;1103;103249;-80
2022/02/03 05:13:40;;;;;;;27.43;13.07;;;;;;;-0.02;71.99;100092.86;125676;1102;104148;-80
2022/02/03 05:42:20;;;;;;;29.03;12.67;;;;;;;0.07;72.37;100125.24;125654;1109;107223;-79
2022/02/03 06:03:29;;;;;;;27.07;12.03;;;;;;;0.22;72.82;100162.46;125556;1105;104729;-79
2022/02/03 06:06:24;;;;;;;29.20;13.10;;;;;;;0.23;73.47;100171.09;125102;1105;104182;-83
2022/02/03 06:09:01;;;;;;;27.30;13.13;;;;;;;0.22;72.79;100169.28;124989;1105;104184;-82
2022/02/03 06:12:19;;;;;;;28.73;13.00;;;;;;;0.23;73.01;100181.41;125028;1105;104300;-80
2022/02/03 06:14:59;;;;;;;27.53;13.53;;;;;;;0.21;73.35;100177.84;125005;1105;104220;-81
2022/02/03 06:17:37;;;;;;;30.97;13.37;;;;;;;0.21;73.73;100191.62;124975;1106;104162;-80
2022/02/03 06:23:05;;;;;;;25.83;12.03;;;;;;;0.26;73.35;100194.54;124874;1105;104156;-81
2022/02/03 06:28:25;;;;;;;27.97;13.10;;;;;;;0.33;73.25;100189.04;124842;1105;104646;-80
2022/02/03 06:30:57;;;;;;;29.43;12.40;;;;;;;0.43;73.23;100200.91;124878;1105;104232;-79
2022/02/03 06:33:30;;;;;;;32.13;13.33;;;;;;;0.50;73.04;100203.15;124774;1105;104326;-80
2022/02/03 06:36:02;;;;;;;27.87;13.17;;;;;;;0.56;73.31;100207.83;124912;1105;104246;-79
2022/02/03 06:38:34;;;;;;;26.77;13.13;;;;;;;0.62;73.18;100208.27;124963;1102;104147;-80
2022/02/03 06:41:06;;;;;;;28.27;13.93;;;;;;;0.65;73.17;100209.36;125010;1102;104175;-80
2022/02/03 06:43:38;;;;;;;27.80;13.33;;;;;;;0.71;73.03;100209.80;125115;1102;104689;-81
2022/02/03 06:46:13;;;;;;;29.03;13.37;;;;;;;0.79;73.22;100212.03;124970;1102;104605;-80
2022/02/03 06:48:52;;;;;;;29.63;14.60;;;;;;;0.83;73.24;100208.88;124977;1102;104194;-80
2022/02/03 06:51:35;;;;;;;27.67;12.43;;;;;;;0.91;73.21;100215.47;125045;1102;104147;-80
2022/02/03 06:54:17;;;;;;;29.87;14.00;;;;;;;0.99;73.14;100221.17;125044;1102;104251;-80
2022/02/03 06:56:54;;;;;;;31.20;14.70;;;;;;;1.06;73.11;100216.53;124942;1102;104297;-79
2022/02/03 06:59:35;;;;;;;32.50;13.67;;;;;;;1.15;73.19;100218.83;125164;1102;104259;-79
2022/02/03 07:02:07;;;;;;;31.40;13.93;;;;;;;1.23;73.16;100227.11;125055;1102;104329;-79
2022/02/03 07:04:43;;;;;;;28.67;13.33;;;;;;;1.31;73.10;100225.05;125182;1102;104149;-79
2022/02/03 07:07:17;;;;;;;28.77;13.77;;;;;;;1.39;72.80;100229.08;125019;1102;104153;-77
2022/02/03 07:09:51;;;;;;;30.77;14.27;;;;;;;1.47;72.72;100227.02;125014;1102;104233;-79
2022/02/03 07:12:22;;;;;;;;;;;;;;;1.56;72.95;100233.69;124794;1102;104176;-80
2022/02/03 07:14:54;;;;;;;29.73;15.33;;;;;;;1.66;72.74;100237.78;124917;1102;104617;-80
2022/02/03 07:17:29;;;;;;;35.00;16.53;;;;;;;1.76;72.82;100245.38;124969;1102;104213;-80
2022/02/03 07:20:05;;;;;;;40.80;18.40;;;;;;;1.83;73.26;100249.25;124995;1102;104223;-79
2022/02/03 07:22:37;;;;;;;39.63;19.73;;;;;;;1.90;72.77;100241.12;124950;1102;104211;-79
2022/02/03 07:25:13;;;;;;;35.17;18.43;;;;;;;1.97;72.76;100248.47;124957;1102;104217;-79
2022/02/03 07:27:48;;;;;;;36.70;17.20;;;;;;;2.09;72.55;100242.33;124908;1102;104306;-80
2022/02/03 07:30:23;;;;;;;36.63;16.60;;;;;;;2.16;72.49;100250.56;124952;1102;104288;-79
2022/02/03 07:32:59;;;;;;;37.33;16.50;;;;;;;2.22;72.46;100250.08;125002;1102;102226;-80
2022/02/03 07:35:35;;;;;;;34.30;17.23;;;;;;;2.31;72.23;100255.84;124854;1106;101960;-80
2022/02/03 07:38:09;;;;;;;31.30;14.97;;;;;;;2.39;72.75;100239.92;125068;1102;104316;-80
2022/02/03 07:40:43;;;;;;;31.15;14.78;;;;;;;2.47;72.07;100255.14;125089;1102;104223;-79
2022/02/03 07:43:20;;;;;;;30.67;14.90;;;;;;;2.51;72.82;100262.31;124924;1102;104140;-79
2022/02/03 07:45:56;;;;;;;31.03;15.13;;;;;;;2.58;72.61;100262.70;125247;1102;104205;-79
2022/02/03 07:48:32;;;;;;;32.03;15.47;;;;;;;2.63;72.14;100263.88;125084;1102;104149;-80
2022/02/03 07:51:04;;;;;;;30.73;14.60;;;;;;;2.66;72.01;100271.85;125037;1102;104149;-79
2022/02/03 07:53:36;;;;;;;29.60;14.37;;;;;;;2.70;71.54;100273.85;124821;1102;104181;-79
2022/02/03 07:56:12;;;;;;;30.70;13.73;;;;;;;2.75;71.98;100275.03;125096;1102;104146;-78
2022/02/03 07:58:45;;;;;;;30.80;14.28;;;;;;;2.84;72.10;100278.20;124868;1102;104197;-78
2022/02/03 08:01:17;;;;;;;29.18;14.35;;;;;;;2.93;72.21;100285.67;125122;1102;104259;-80
2022/02/03 08:03:54;;;;;;;29.75;13.95;;;;;;;3.02;72.03;100287.92;125272;1102;104191;-79
2022/02/03 08:06:32;;;;;;;30.43;14.33;;;;;;;3.10;71.87;100301.36;124899;1102;104185;-78
2022/02/03 08:09:24;;;;;;;28.83;14.30;;;;;;;3.18;70.95;100298.45;125079;1102;104184;-79
2022/02/03 08:12:09;;;;;;;30.53;13.73;;;;;;;3.27;71.45;100302.41;125074;1102;104182;-79
2022/02/03 08:14:45;;;;;;;28.97;14.00;;;;;;;3.44;71.25;100306.92;125117;1102;104182;-80
2022/02/03 08:17:21;;;;;;;29.80;14.67;;;;;;;3.57;71.07;100293.91;125066;1102;104201;-79
2022/02/03 08:19:57;;;;;;;33.00;14.13;;;;;;;3.60;70.81;100301.87;125075;1102;104274;-80
2022/02/03 08:22:40;;;;;;;29.30;13.67;;;;;;;3.72;71.17;100296.51;125036;1102;104179;-80
2022/02/03 08:25:21;;;;;;;27.05;12.98;;;;;;;3.77;69.32;100308.08;124757;1102;104210;-79
2022/02/03 08:28:28;;;;;;;28.80;13.27;;;;;;;3.88;69.91;100300.94;125061;1103;103005;-80
2022/02/03 08:31:02;;;;;;;29.73;13.23;;;;;;;3.95;69.59;100312.56;125174;1102;117961;-79
2022/02/03 08:37:01;;;;;;;28.50;13.20;;;;;;;4.06;69.29;100311.48;124934;1105;104200;-80
2022/02/03 08:39:43;;;;;;;28.20;12.97;;;;;;;4.10;69.18;100325.57;124859;1105;104290;-79
2022/02/03 08:42:15;;;;;;;30.87;13.17;;;;;;;4.12;67.81;100311.84;124884;1105;104575;-78
2022/02/03 08:44:48;;;;;;;26.97;12.57;;;;;;;4.14;69.19;100315.45;124818;1106;102670;-79
2022/02/03 08:47:20;;;;;;;29.13;13.80;;;;;;;4.17;68.38;100339.80;124737;1105;104393;-79
2022/02/03 08:49:53;;;;;;;27.83;12.73;;;;;;;4.22;68.34;100327.97;124890;1105;104297;-79
2022/02/03 08:52:36;;;;;;;28.30;13.00;;;;;;;4.26;68.58;100324.76;125074;1102;104287;-79
2022/02/03 08:55:21;;;;;;;28.63;12.67;;;;;;;4.29;67.89;100333.61;125098;1102;102152;-78
2022/02/03 09:41:08;;;;;;;28.10;11.70;;;;;;;5.02;63.30;100315.19;125037;1102;104165;-79
2022/02/03 09:52:50;;;;;;;22.13;10.37;;;;;;;5.03;62.65;100306.58;125997;1099;104255;-79
2022/02/03 09:55:45;;;;;;;23.43;9.40;;;;;;;5.11;61.83;100294.00;125939;1099;105516;-78
2022/02/03 09:58:19;;;;;;;22.85;9.35;;;;;;;5.29;62.19;100291.47;125129;1102;104197;-77
2022/02/03 10:01:05;;;;;;;22.90;10.07;;;;;;;5.42;59.48;100300.81;125109;1102;104188;-77
2022/02/03 10:03:47;;;;;;;22.03;9.67;;;;;;;5.48;60.72;100306.34;125094;1102;104364;-77
2022/02/03 10:06:23;;;;;;;27.23;9.87;;;;;;;5.53;60.14;100301.39;125181;1102;104657;-78
2022/02/03 10:08:57;;;;;;;22.47;9.53;;;;;;;5.49;59.91;100307.27;125124;1102;104319;-79
2022/02/03 10:11:30;;;;;;;26.82;10.45;;;;;;;5.47;60.50;100308.87;125053;1102;104264;-78
2022/02/03 10:14:04;;;;;;;20.70;9.30;;;;;;;5.50;59.15;100312.55;125093;1102;104329;-78
2022/02/03 10:16:39;;;;;;;24.85;10.68;;;;;;;5.53;59.35;100311.80;125130;1102;104248;-79
2022/02/03 10:19:17;;;;;;;21.30;8.97;;;;;;;5.64;59.56;100307.16;125142;1102;104195;-78
2022/02/03 10:21:51;;;;;;;22.10;9.70;;;;;;;5.60;59.04;100310.44;124985;1102;104346;-79
2022/02/03 10:24:36;;;;;;;22.37;9.47;;;;;;;5.56;59.34;100306.75;125629;1102;101912;-79
2022/02/03 10:27:24;;;;;;;19.83;9.43;;;;;;;5.40;60.03;100308.55;125022;1102;104304;-78
2022/02/03 10:30:12;;;;;;;21.37;9.13;;;;;;;5.25;59.96;100301.63;125386;1099;104229;-79
2022/02/03 10:32:45;;;;;;;22.93;9.57;;;;;;;5.17;58.53;100316.83;125879;1099;104146;-79
2022/02/03 10:35:31;;;;;;;21.50;9.70;;;;;;;5.16;58.93;100304.66;125814;1099;104210;-79
2022/02/03 10:44:44;;;;;;;23.77;10.50;;;;;;;5.19;59.61;100341.23;125114;1102;111463;-79
2022/02/03 10:50:33;;;;;;;21.23;9.57;;;;;;;5.11;58.95;100348.62;125184;1103;104488;-78
2022/02/03 10:53:28;;;;;;;21.40;9.70;;;;;;;5.12;58.49;100346.91;125091;1102;104274;-77
2022/02/03 10:56:14;;;;;;;20.07;8.57;;;;;;;5.10;58.13;100361.54;125113;1102;104181;-77
2022/02/03 11:02:01;;;;;;;22.05;8.85;;;;;;;4.82;58.20;100367.80;125034;1102;104252;-78
2022/02/03 11:05:07;;;;;;;21.10;8.77;;;;;;;4.72;58.79;100365.47;124992;1102;119838;-78
2022/02/03 11:07:48;;;;;;;23.60;9.63;;;;;;;4.63;59.13;100377.14;124954;1102;104296;-78
2022/02/03 11:10:30;;;;;;;22.67;9.23;;;;;;;4.59;58.69;100392.47;124984;1102;104380;-78
2022/02/03 11:13:06;;;;;;;23.90;9.70;;;;;;;4.54;59.06;100368.81;125431;1099;104190;-78
2022/02/03 11:15:42;;;;;;;24.43;10.87;;;;;;;4.60;59.59;100370.88;125953;1099;104204;-78
2022/02/03 11:18:17;;;;;;;24.60;10.67;;;;;;;4.61;58.92;100376.17;125061;1100;104249;-78
2022/02/03 11:21:07;;;;;;;23.63;10.50;;;;;;;4.59;58.83;100377.76;125143;1099;104149;-79
2022/02/03 11:23:54;;;;;;;22.43;10.23;;;;;;;4.54;59.55;100371.41;125326;1099;104262;-77
2022/02/03 11:26:53;;;;;;;26.37;11.03;;;;;;;4.53;59.24;100382.60;125395;1099;102899;-78
2022/02/03 11:41:57;;;;;;;23.43;10.17;;;;;;;4.75;59.03;100369.13;125210;1099;104259;-79
2022/02/03 11:56:54;;;;;;;25.70;10.90;;;;;;;4.61;58.23;100370.05;125265;1099;109345;-78
2022/02/03 12:02:53;;;;;;;29.57;10.67;;;;;;;4.54;57.07;100388.72;125751;1099;104265;-79
2022/02/03 12:18:32;;;;;;;27.47;11.10;;;;;;;4.56;57.94;100382.78;125060;1102;104140;-80
2022/02/03 12:21:13;;;;;;;26.07;10.30;;;;;;;4.53;56.86;100386.91;125071;1102;104054;-79
2022/02/03 12:23:58;;;;;;;25.73;10.60;;;;;;;4.55;57.19;100396.60;125062;1102;104226;-79
2022/02/03 12:26:49;;;;;;;25.63;11.47;;;;;;;4.71;57.34;100413.97;125182;1102;104173;-79
2022/02/03 12:30:03;;;;;;;;;;;;;;;;;;;;;
2022/02/03 12:33:17;;;;;;;26.17;9.93;;;;;;;4.83;56.45;100404.28;125100;1102;104205;-81
2022/02/03 12:38:57;;;;;;;22.40;9.10;;;;;;;4.84;55.49;100415.56;125208;1102;104169;-81
2022/02/03 12:41:40;;;;;;;18.73;7.70;;;;;;;4.78;53.82;100428.20;125181;1102;104159;-80
2022/02/03 12:44:21;;;;;;;22.83;7.97;;;;;;;4.73;53.53;100429.66;125101;1102;104203;-80
2022/02/03 12:47:04;;;;;;;18.32;7.22;;;;;;;4.67;53.59;100440.58;125155;1102;104370;-80
2022/02/03 12:49:52;;;;;;;21.30;8.50;;;;;;;4.62;54.18;100439.42;125126;1102;104169;-80
2022/02/03 12:52:31;;;;;;;19.93;7.63;;;;;;;4.55;54.12;100432.98;124995;1102;104240;-80
2022/02/03 12:55:10;;;;;;;20.00;8.13;;;;;;;4.51;54.30;100446.59;125028;1102;104171;-80
2022/02/03 12:57:51;;;;;;;21.67;7.43;;;;;;;4.46;53.62;100450.63;125123;1102;104603;-81
2022/02/03 13:00:44;;;;;;;19.77;7.23;;;;;;;4.36;53.49;100461.27;125142;1102;104181;-82
2022/02/03 13:03:19;;;;;;;21.90;8.20;;;;;;;4.31;54.00;100469.67;125238;1102;104159;-80
2022/02/03 13:05:58;;;;;;;22.80;8.13;;;;;;;4.25;53.77;100464.10;125164;1102;104246;-80
2022/02/03 13:08:39;;;;;;;19.47;7.47;;;;;;;4.20;54.11;100475.92;125172;1102;104312;-79
2022/02/03 13:11:23;;;;;;;20.37;7.83;;;;;;;4.13;54.79;100476.38;125185;1099;104247;-79
2022/02/03 13:14:10;;;;;;;23.80;8.60;;;;;;;4.03;54.66;100481.80;125229;1099;104300;-80
2022/02/03 13:17:21;;;;;;;22.58;8.00;;;;;;;3.93;54.69;100486.42;125194;1099;104241;-79
2022/02/03 13:20:07;;;;;;;21.13;8.50;;;;;;;3.85;54.02;100489.33;125172;1099;104194;-80
2022/02/03 13:22:48;;;;;;;20.57;8.17;;;;;;;3.81;54.98;100489.96;125251;1102;104255;-79
2022/02/03 13:25:31;;;;;;;22.83;9.27;;;;;;;3.80;54.13;100489.04;125140;1102;104236;-80
2022/02/03 13:28:12;;;;;;;18.98;8.58;;;;;;;3.83;54.51;100499.62;125105;1100;104181;-81
2022/02/03 13:31:17;;;;;;;23.87;9.20;;;;;;;3.85;55.28;100489.33;125102;1099;104201;-81
2022/02/03 13:34:11;;;;;;;21.93;8.97;;;;;;;3.87;54.34;100499.02;125214;1102;104242;-79
2022/02/03 13:37:12;;;;;;;25.23;7.77;;;;;;;3.85;55.15;100492.84;125167;1102;104271;-80
2022/02/03 13:40:10;;;;;;;16.70;6.97;;;;;;;3.83;53.71;100499.62;125207;1102;104218;-80
2022/02/03 13:42:47;;;;;;;20.97;7.50;;;;;;;3.81;54.51;100498.63;125162;1102;102382;-80
2022/02/03 13:45:27;;;;;;;20.03;7.90;;;;;;;3.81;53.99;100493.44;125167;1102;104226;-81
2022/02/03 13:48:02;;;;;;;17.73;7.43;;;;;;;3.78;54.38;100512.30;125145;1102;104203;-80
2022/02/03 13:50:36;;;;;;;19.95;8.05;;;;;;;3.74;54.39;100505.15;125171;1099;104365;-81
2022/02/03 13:53:32;;;;;;;19.77;7.60;;;;;;;3.72;54.16;100508.44;125030;1099;104280;-82
2022/02/03 14:23:25;;;;;;;18.90;7.07;;;;;;;3.26;54.24;100550.49;125050;1102;102255;-81
2022/02/03 14:29:07;;;;;;;22.40;8.10;;;;;;;3.19;54.31;100554.35;125084;1102;104334;-80
2022/02/03 14:31:47;;;;;;;22.05;8.00;;;;;;;3.16;55.03;100558.45;125097;1103;104329;-80
2022/02/03 14:34:30;;;;;;;20.97;7.73;;;;;;;3.10;55.21;100558.04;125051;1102;102794;-81
2022/02/03 14:37:12;;;;;;;23.03;8.30;;;;;;;3.05;54.87;100549.95;125178;1102;104220;-81
2022/02/03 14:40:02;;;;;;;25.30;8.70;;;;;;;3.01;55.02;100560.94;125114;1102;104178;-80
2022/02/03 14:42:39;;;;;;;22.37;8.57;;;;;;;2.98;55.32;100564.22;125092;1102;104210;-81
2022/02/03 14:45:18;;;;;;;22.03;8.53;;;;;;;2.94;55.42;100569.98;125090;1102;104663;-82
2022/02/03 14:47:52;;;;;;;23.77;9.90;;;;;;;2.92;55.78;100562.91;125200;1102;104185;-82
2022/02/03 14:50:24;;;;;;;21.43;8.30;;;;;;;2.86;55.89;100573.75;125154;1102;104159;-81
2022/02/03 14:53:03;;;;;;;23.07;8.40;;;;;;;2.81;55.28;100570.85;125100;1102;104309;-82
2022/02/03 14:58:50;;;;;;;17.97;6.70;;;;;;;2.70;55.91;100575.30;125119;1102;104280;-83
2022/02/03 15:01:23;;;;;;;19.37;7.43;;;;;;;2.65;56.04;100578.36;125046;1102;104277;-82
2022/02/03 15:03:58;;;;;;;19.73;7.63;;;;;;;2.58;55.87;100595.19;125034;1102;104171;-81
2022/02/03 15:06:38;;;;;;;20.60;8.07;;;;;;;2.54;55.30;100593.20;125216;1102;104152;-82
2022/02/03 15:09:21;;;;;;;20.07;7.60;;;;;;;2.50;56.05;100605.02;125125;1102;104143;-84
2022/02/03 15:12:02;;;;;;;18.60;7.97;;;;;;;2.48;56.00;100611.79;125104;1101;104155;-81
2022/02/03 15:14:40;;;;;;;20.87;8.10;;;;;;;2.44;55.83;100621.83;125051;1102;102619;-80
2022/02/03 15:17:12;;;;;;;18.50;7.27;;;;;;;2.43;55.84;100626.13;125124;1102;102989;-80
2022/02/03 15:19:46;;;;;;;19.07;7.03;;;;;;;2.41;56.33;100624.20;125904;1099;104158;-81
2022/02/03 15:22:25;;;;;;;19.80;7.77;;;;;;;2.39;56.22;100636.16;125803;1099;104179;-81
2022/02/03 15:25:06;;;;;;;22.37;8.83;;;;;;;2.36;56.71;100631.65;126008;1099;102474;-81
2022/02/03 15:27:41;;;;;;;20.77;8.10;;;;;;;2.33;56.01;100634.91;126060;1099;104258;-82
2022/02/03 15:30:19;;;;;;;18.17;7.53;;;;;;;2.30;56.53;100642.46;125861;1099;104285;-81
2022/02/03 15:32:54;;;;;;;19.53;8.00;;;;;;;2.28;56.88;100643.16;125794;1099;104156;-81
2022/02/03 15:35:31;;;;;;;21.53;8.87;;;;;;;2.26;56.76;100648.23;126575;1099;104287;-79
2022/02/03 15:38:07;;;;;;;19.10;8.33;;;;;;;2.22;56.74;100653.97;125086;1099;102568;-79
2022/02/03 15:40:48;;;;;;;21.07;8.17;;;;;;;2.20;56.73;100654.64;125730;1099;104473;-79
2022/02/03 15:43:27;;;;;;;19.93;8.00;;;;;;;2.19;57.25;100658.05;125583;1099;105559;-78
2022/02/03 15:46:02;;;;;;;22.77;9.17;;;;;;;2.18;57.12;100654.53;125654;1099;104226;-79
2022/02/03 15:48:43;;;;;;;22.60;9.20;;;;;;;2.15;57.15;100650.06;125076;1099;104325;-79
2022/02/03 15:56:13;;;;;;;20.20;7.83;;;;;;;2.16;57.34;100657.02;125641;1099;104281;-79
2022/02/03 15:57:40;;;;;;;21.40;8.90;;;;;;;2.13;57.62;100661.08;125167;1100;104348;-78
2022/02/03 16:03:28;;;;;;;20.87;8.50;;;;;;;2.13;57.54;100664.55;124909;1102;104187;-78
2022/02/03 16:17:27;;;;;;;20.50;7.13;;;;;;;1.95;58.05;100676.20;125400;1096;104229;-78
2022/02/03 16:20:04;;;;;;;17.50;6.60;;;;;;;1.90;57.41;100691.39;125627;1099;104178;-78
2022/02/03 16:22:44;;;;;;;18.27;7.20;;;;;;;1.84;56.92;100685.77;125637;1099;104171;-79
2022/02/03 16:25:37;;;;;;;18.40;6.93;;;;;;;1.78;56.91;100681.02;125574;1099;104243;-79
2022/02/03 16:50:56;;;;;;;12.60;4.33;;;;;;;1.27;55.23;100747.86;125941;1099;104158;-77
2022/02/03 16:53:28;;;;;;;15.53;5.30;;;;;;;1.22;55.56;100742.33;126163;1099;104143;-78
2022/02/03 16:56:01;;;;;;;11.17;4.47;;;;;;;1.17;55.05;100754.91;126044;1096;119838;-77
2022/02/03 16:58:34;;;;;;;13.13;4.58;;;;;;;1.10;54.89;100770.70;126138;1096;104175;-78
2022/02/03 17:01:06;;;;;;;9.60;4.40;;;;;;;1.04;54.64;100771.16;126003;1096;104172;-77
2022/02/03 17:03:37;;;;;;;8.00;3.67;;;;;;;0.97;54.21;100776.61;125929;1096;104223;-78
2022/02/03 17:06:10;;;;;;;10.90;4.23;;;;;;;0.94;54.47;100781.54;125871;1097;104291;-79
2022/02/03 17:08:42;;;;;;;12.83;4.67;;;;;;;0.85;53.27;100776.53;125842;1099;104301;-78
2022/02/03 17:11:13;;;;;;;8.80;4.00;;;;;;;0.81;54.72;100776.17;125818;1099;104376;-78
2022/02/03 17:13:44;;;;;;;11.07;4.70;;;;;;;0.78;54.35;100778.52;125877;1099;104168;-78
2022/02/03 17:16:22;;;;;;;11.37;4.37;;;;;;;0.73;54.14;100795.34;125878;1096;105521;-78
2022/02/03 17:18:54;;;;;;;14.00;4.57;;;;;;;0.64;53.92;100800.66;126024;1099;104140;-78
2022/02/03 17:21:29;;;;;;;11.33;4.43;;;;;;;0.61;54.94;100793.59;125964;1096;104287;-78
2022/02/03 17:24:00;;;;;;;;;;;;;;;0.59;54.70;100800.29;126076;1096;104153;-78
2022/02/03 17:26:37;;;;;;;10.27;4.10;;;;;;;0.56;54.82;100800.05;125982;1099;104261;-78
2022/02/03 17:29:15;;;;;;;10.33;4.70;;;;;;;0.56;55.26;100800.05;126015;1099;104201;-78
2022/02/03 17:31:58;;;;;;;12.47;4.90;;;;;;;0.53;54.56;100807.54;125934;1099;104204;-78
2022/02/03 18:03:09;;;;;;;14.07;5.87;;;;;;;-0.02;55.39;100763.60;125997;1096;104124;-78
2022/02/03 18:11:46;;;;;;;12.33;4.93;;;;;;;-0.17;55.25;100767.50;126065;1099;104302;-77
2022/02/03 18:17:29;;;;;;;14.70;5.57;;;;;;;-0.27;56.09;100794.17;126180;1099;104140;-77
2022/02/03 18:26:03;;;;;;;13.47;5.37;;;;;;;-0.36;55.88;100801.14;126176;1099;104175;-78
2022/02/03 18:31:33;;;;;;;13.23;4.70;;;;;;;-0.43;55.82;100810.05;126328;1099;104207;-79
2022/02/03 18:34:36;;;;;;;12.80;5.23;;;;;;;-0.45;55.95;100805.52;126290;1099;104309;-79
2022/02/03 18:37:16;;;;;;;14.33;4.60;;;;;;;-0.49;56.02;100812.11;126317;1099;104153;-79
2022/02/03 18:52:02;;;;;;;11.50;4.30;;;;;;;-0.65;56.50;100803.86;126136;1099;104152;-80
2022/02/03 18:54:47;;;;;;;14.65;4.62;;;;;;;-0.67;55.34;100798.58;126214;1097;104178;-79
2022/02/03 18:57:30;;;;;;;11.57;4.70;;;;;;;-0.68;55.93;100796.77;126178;1099;104162;-79
2022/02/03 19:14:49;;;;;;;11.03;4.40;;;;;;;-0.76;55.17;100820.98;126252;1099;104153;-78
2022/02/03 19:29:04;;;;;;;10.60;4.43;;;;;;;-0.83;55.91;100832.41;125600;1099;104820;-78
2022/02/03 20:05:41;;;;;;;12.80;4.73;;;;;;;-1.21;56.97;100829.11;126268;1096;104134;-79
2022/02/03 20:08:16;;;;;;;12.40;5.17;;;;;;;-1.25;56.70;100830.48;126203;1096;102924;-80
2022/02/03 20:10:50;;;;;;;14.07;5.33;;;;;;;-1.25;56.94;100834.75;126099;1096;104140;-79
2022/02/03 20:13:22;;;;;;;12.03;5.40;;;;;;;-1.28;56.45;100832.80;126281;1099;104139;-80
2022/02/03 20:15:54;;;;;;;15.07;5.70;;;;;;;-1.29;57.11;100828.44;126363;1099;104149;-80
2022/02/03 20:18:26;;;;;;;13.57;5.10;;;;;;;-1.31;57.61;100825.73;126255;1099;104150;-79
2022/02/03 20:20:57;;;;;;;12.97;5.17;;;;;;;-1.31;56.97;100829.95;126218;1099;105560;-79
2022/02/03 20:23:28;;;;;;;11.03;4.63;;;;;;;-1.32;57.69;100823.02;126271;1099;102923;-79
2022/02/03 20:26:00;;;;;;;13.60;5.20;;;;;;;-1.34;57.08;100825.45;126186;1099;104281;-79
2022/02/03 20:28:32;;;;;;;12.10;5.03;;;;;;;-1.33;57.06;100823.77;126115;1099;102842;-80
2022/02/03 20:31:03;;;;;;;14.27;5.50;;;;;;;-1.33;57.62;100829.81;126061;1097;104182;-79
2022/02/03 20:33:35;;;;;;;11.80;4.40;;;;;;;-1.32;56.47;100830.73;126246;1099;101950;-80
2022/02/03 20:36:09;;;;;;;9.43;4.27;;;;;;;-1.31;57.44;100833.45;126210;1099;104130;-80